sensor_id;sensor_type;location;lat;lon;timestamp;pressure;altitude;pressure_sealevel;temperature;humidity
59654;BME280;66556;52.008;5.432;2023-03-03T00:00:55;102522.0;;;8.63;62.92
59654;BME280;66556;52.008;5.432;2023-03-03T00:04:07;102519.0;;;8.47;63.2
59654;BME280;66556;52.008;5.432;2023-03-03T00:05:44;102514.00000000001;;;8.55;63.29
59654;BME280;66556;52.008;5.432;2023-03-03T00:07:19;102516.00000000001;;;8.55;63.17
59654;BME280;66556;52.008;5.432;2023-03-03T00:10:32;102517.0;;;8.89;61.83
59654;BME280;66556;52.008;5.432;2023-03-03T00:12:19;102518.0;;;8.57;62.39
59654;BME280;66556;52.008;5.432;2023-03-03T00:13:57;102523.0;;;8.58;62.33
59654;BME280;66556;52.008;5.432;2023-03-03T00:15:35;102520.0;;;8.47;62.84
59654;BME280;66556;52.008;5.432;2023-03-03T00:18:56;102523.0;;;8.17;64.3
59654;BME280;66556;52.008;5.432;2023-03-03T00:20:35;102525.0;;;8.13;64.94
59654;BME280;66556;52.008;5.432;2023-03-03T00:22:16;102524.0;;;8.31;65.52
59654;BME280;66556;52.008;5.432;2023-03-03T00:24:16;102529.0;;;8.64;64.09
59654;BME280;66556;52.008;5.432;2023-03-03T00:25:55;102538.00000000001;;;8.69;63.26
59654;BME280;66556;52.008;5.432;2023-03-03T00:29:26;102534.99999999999;;;8.48;64.77
59654;BME280;66556;52.008;5.432;2023-03-03T00:31:15;102534.99999999999;;;8.97;63.24
59654;BME280;66556;52.008;5.432;2023-03-03T00:32:53;102533.99999999999;;;8.9;63.21
59654;BME280;66556;52.008;5.432;2023-03-03T00:34:29;102538.00000000001;;;8.84;63.45
59654;BME280;66556;52.008;5.432;2023-03-03T00:38:13;102534.99999999999;;;9.38;61.95
59654;BME280;66556;52.008;5.432;2023-03-03T00:39:52;102533.0;;;8.85;62.76
59654;BME280;66556;52.008;5.432;2023-03-03T00:41:29;102536.99999999999;;;8.84;63.85
59654;BME280;66556;52.008;5.432;2023-03-03T00:43:14;102543.0;;;8.84;63.6
59654;BME280;66556;52.008;5.432;2023-03-03T00:44:55;102546.0;;;8.83;63.45
59654;BME280;66556;52.008;5.432;2023-03-03T00:48:20;102542.0;;;8.65;63.53
59654;BME280;66556;52.008;5.432;2023-03-03T00:50:20;102539.00000000001;;;8.86;62.46
59654;BME280;66556;52.008;5.432;2023-03-03T00:52:00;102544.0;;;8.77;62.95
59654;BME280;66556;52.008;5.432;2023-03-03T00:53:36;102541.00000000001;;;8.68;63.28
59654;BME280;66556;52.008;5.432;2023-03-03T00:55:12;102538.00000000001;;;9.06;62.05
59654;BME280;66556;52.008;5.432;2023-03-03T00:58:25;102538.00000000001;;;8.34;63.51
59654;BME280;66556;52.008;5.432;2023-03-03T01:00:03;102536.99999999999;;;8.92;62.53
59654;BME280;66556;52.008;5.432;2023-03-03T01:01:40;102536.99999999999;;;8.94;62.01
59654;BME280;66556;52.008;5.432;2023-03-03T01:04:55;102531.0;;;8.98;62.23
59654;BME280;66556;52.008;5.432;2023-03-03T01:06:31;102530.0;;;8.9;62.41
59654;BME280;66556;52.008;5.432;2023-03-03T01:08:07;102533.99999999999;;;8.69;63.26
59654;BME280;66556;52.008;5.432;2023-03-03T01:11:22;102540.00000000001;;;8.61;63.23
59654;BME280;66556;52.008;5.432;2023-03-03T01:13:01;102539.00000000001;;;8.85;63.45
59654;BME280;66556;52.008;5.432;2023-03-03T01:14:38;102534.99999999999;;;7.94;64.94
59654;BME280;66556;52.008;5.432;2023-03-03T01:16:15;102545.0;;;8.53;64.31
59654;BME280;66556;52.008;5.432;2023-03-03T01:19:29;102543.0;;;9.0;62.72
59654;BME280;66556;52.008;5.432;2023-03-03T01:21:05;102547.0;;;8.99;62.08
59654;BME280;66556;52.008;5.432;2023-03-03T01:22:43;102547.0;;;9.01;62.16
59654;BME280;66556;52.008;5.432;2023-03-03T01:25:55;102548.0;;;9.19;61.47
59654;BME280;66556;52.008;5.432;2023-03-03T01:27:34;102546.0;;;8.98;62.57
59654;BME280;66556;52.008;5.432;2023-03-03T01:30:46;102547.0;;;9.15;61.49
59654;BME280;66556;52.008;5.432;2023-03-03T01:33:58;102549.0;;;9.11;61.68
59654;BME280;66556;52.008;5.432;2023-03-03T01:35:35;102556.0;;;9.38;61.5
59654;BME280;66556;52.008;5.432;2023-03-03T01:37:11;102553.0;;;9.13;61.49
59654;BME280;66556;52.008;5.432;2023-03-03T01:40:26;102551.0;;;9.21;61.14
59654;BME280;66556;52.008;5.432;2023-03-03T01:42:05;102548.0;;;9.19;61.46
59654;BME280;66556;52.008;5.432;2023-03-03T01:43:43;102550.0;;;9.03;62.21
59654;BME280;66556;52.008;5.432;2023-03-03T01:47:04;102557.0;;;9.35;60.53
59654;BME280;66556;52.008;5.432;2023-03-03T01:48:43;102555.0;;;9.41;60.12
59654;BME280;66556;52.008;5.432;2023-03-03T01:50:29;102563.00000000001;;;9.46;60.15
59654;BME280;66556;52.008;5.432;2023-03-03T01:52:12;102558.99999999999;;;9.57;59.38
59654;BME280;66556;52.008;5.432;2023-03-03T01:53:52;102559.99999999999;;;8.88;60.79
59654;BME280;66556;52.008;5.432;2023-03-03T01:57:13;102556.0;;;9.09;61.02
59654;BME280;66556;52.008;5.432;2023-03-03T01:58:59;102558.0;;;9.23;60.43
59654;BME280;66556;52.008;5.432;2023-03-03T02:00:38;102555.0;;;9.23;60.32
59654;BME280;66556;52.008;5.432;2023-03-03T02:02:16;102554.0;;;9.06;60.63
59654;BME280;66556;52.008;5.432;2023-03-03T02:05:28;102561.99999999999;;;9.34;59.86
59654;BME280;66556;52.008;5.432;2023-03-03T02:07:07;102565.00000000001;;;9.17;60.43
59654;BME280;66556;52.008;5.432;2023-03-03T02:08:50;102558.0;;;9.18;59.93
59654;BME280;66556;52.008;5.432;2023-03-03T02:12:08;102559.99999999999;;;9.34;59.77
59654;BME280;66556;52.008;5.432;2023-03-03T02:13:47;102559.99999999999;;;9.48;59.28
59654;BME280;66556;52.008;5.432;2023-03-03T02:15:25;102554.0;;;9.36;59.8
59654;BME280;66556;52.008;5.432;2023-03-03T02:17:02;102558.0;;;9.58;59.08
59654;BME280;66556;52.008;5.432;2023-03-03T02:20:18;102557.0;;;9.82;58.39
59654;BME280;66556;52.008;5.432;2023-03-03T02:22:01;102555.0;;;9.25;59.86
59654;BME280;66556;52.008;5.432;2023-03-03T02:23:42;102558.0;;;9.48;59.34
59654;BME280;66556;52.008;5.432;2023-03-03T02:25:31;102558.0;;;9.74;58.58
59654;BME280;66556;52.008;5.432;2023-03-03T02:28:45;102555.0;;;9.9;58.19
59654;BME280;66556;52.008;5.432;2023-03-03T02:30:23;102553.0;;;9.75;58.46
59654;BME280;66556;52.008;5.432;2023-03-03T02:32:01;102554.0;;;9.6;59.09
59654;BME280;66556;52.008;5.432;2023-03-03T02:33:37;102557.0;;;9.56;59.03
59654;BME280;66556;52.008;5.432;2023-03-03T02:37:09;102558.0;;;9.42;59.05
59654;BME280;66556;52.008;5.432;2023-03-03T02:38:50;102565.00000000001;;;9.26;59.71
59654;BME280;66556;52.008;5.432;2023-03-03T02:40:33;102561.99999999999;;;9.27;59.56
59654;BME280;66556;52.008;5.432;2023-03-03T02:42:15;102556.0;;;9.08;60.02
59654;BME280;66556;52.008;5.432;2023-03-03T02:45:41;102564.00000000001;;;9.23;59.78
59654;BME280;66556;52.008;5.432;2023-03-03T02:47:17;102563.00000000001;;;9.56;58.65
59654;BME280;66556;52.008;5.432;2023-03-03T02:48:54;102558.99999999999;;;9.69;58.29
59654;BME280;66556;52.008;5.432;2023-03-03T02:50:30;102564.00000000001;;;8.86;60.31
59654;BME280;66556;52.008;5.432;2023-03-03T02:53:45;102565.00000000001;;;8.68;61.53
59654;BME280;66556;52.008;5.432;2023-03-03T02:55:22;102561.99999999999;;;8.75;61.98
59654;BME280;66556;52.008;5.432;2023-03-03T02:56:59;102555.0;;;8.64;61.59
59654;BME280;66556;52.008;5.432;2023-03-03T03:01:50;102552.0;;;8.45;61.52
59654;BME280;66556;52.008;5.432;2023-03-03T03:03:27;102551.0;;;8.16;62.52
59654;BME280;66556;52.008;5.432;2023-03-03T03:05:03;102558.0;;;8.73;61.23
59654;BME280;66556;52.008;5.432;2023-03-03T03:08:17;102557.0;;;9.23;60.04
59654;BME280;66556;52.008;5.432;2023-03-03T03:09:54;102558.0;;;9.09;59.13
59654;BME280;66556;52.008;5.432;2023-03-03T03:11:30;102561.99999999999;;;9.47;58.83
59654;BME280;66556;52.008;5.432;2023-03-03T03:14:42;102561.99999999999;;;9.23;59.36
59654;BME280;66556;52.008;5.432;2023-03-03T03:16:18;102566.00000000001;;;9.21;59.82
59654;BME280;66556;52.008;5.432;2023-03-03T03:17:54;102565.00000000001;;;9.15;59.63
59654;BME280;66556;52.008;5.432;2023-03-03T03:21:08;102563.00000000001;;;9.02;59.85
59654;BME280;66556;52.008;5.432;2023-03-03T03:22:45;102567.0;;;9.38;58.64
59654;BME280;66556;52.008;5.432;2023-03-03T03:24:22;102564.00000000001;;;9.13;59.65
59654;BME280;66556;52.008;5.432;2023-03-03T03:25:58;102563.00000000001;;;9.08;59.66
59654;BME280;66556;52.008;5.432;2023-03-03T03:29:10;102566.00000000001;;;9.18;59.61
59654;BME280;66556;52.008;5.432;2023-03-03T03:30:46;102564.00000000001;;;8.92;60.07
59654;BME280;66556;52.008;5.432;2023-03-03T03:32:22;102569.0;;;8.86;60.74
59654;BME280;66556;52.008;5.432;2023-03-03T03:35:34;102571.0;;;8.93;60.54
59654;BME280;66556;52.008;5.432;2023-03-03T03:37:11;102565.00000000001;;;9.26;59.24
59654;BME280;66556;52.008;5.432;2023-03-03T03:38:47;102567.0;;;8.96;59.4
59654;BME280;66556;52.008;5.432;2023-03-03T03:41:59;102567.0;;;9.27;59.12
59654;BME280;66556;52.008;5.432;2023-03-03T03:43:35;102575.0;;;9.68;57.5
59654;BME280;66556;52.008;5.432;2023-03-03T03:45:12;102571.0;;;9.77;57.11
59654;BME280;66556;52.008;5.432;2023-03-03T03:46:48;102571.0;;;9.61;57.49
59654;BME280;66556;52.008;5.432;2023-03-03T03:50:02;102573.0;;;9.4;58.14
59654;BME280;66556;52.008;5.432;2023-03-03T03:51:38;102572.0;;;9.14;58.98
59654;BME280;66556;52.008;5.432;2023-03-03T03:53:14;102574.0;;;9.43;58.57
59654;BME280;66556;52.008;5.432;2023-03-03T03:56:27;102575.0;;;9.53;58.08
59654;BME280;66556;52.008;5.432;2023-03-03T03:59:41;102572.0;;;9.42;58.71
59654;BME280;66556;52.008;5.432;2023-03-03T04:02:53;102573.0;;;9.21;58.93
59654;BME280;66556;52.008;5.432;2023-03-03T04:04:29;102578.0;;;9.24;59.26
59654;BME280;66556;52.008;5.432;2023-03-03T04:06:05;102579.0;;;9.43;58.32
59654;BME280;66556;52.008;5.432;2023-03-03T04:07:41;102578.0;;;9.31;58.69
59654;BME280;66556;52.008;5.432;2023-03-03T04:10:55;102576.0;;;9.31;58.73
59654;BME280;66556;52.008;5.432;2023-03-03T04:12:31;102572.0;;;8.96;59.8
59654;BME280;66556;52.008;5.432;2023-03-03T04:14:07;102576.0;;;9.15;59.33
59654;BME280;66556;52.008;5.432;2023-03-03T04:17:21;102578.0;;;9.01;59.54
59654;BME280;66556;52.008;5.432;2023-03-03T04:18:57;102580.0;;;9.21;58.98
59654;BME280;66556;52.008;5.432;2023-03-03T04:20:34;102575.0;;;9.1;59.15
59654;BME280;66556;52.008;5.432;2023-03-03T04:23:46;102578.0;;;9.42;57.86
59654;BME280;66556;52.008;5.432;2023-03-03T04:25:22;102576.0;;;9.02;58.84
59654;BME280;66556;52.008;5.432;2023-03-03T04:26:59;102576.0;;;8.56;60.36
59654;BME280;66556;52.008;5.432;2023-03-03T04:28:35;102574.0;;;8.84;60.27
59654;BME280;66556;52.008;5.432;2023-03-03T04:31:50;102581.0;;;8.72;59.98
59654;BME280;66556;52.008;5.432;2023-03-03T04:33:26;102580.0;;;8.48;60.95
59654;BME280;66556;52.008;5.432;2023-03-03T04:35:04;102580.0;;;8.64;61.08
59654;BME280;66556;52.008;5.432;2023-03-03T04:38:17;102586.99999999999;;;8.22;62.16
59654;BME280;66556;52.008;5.432;2023-03-03T04:39:53;102580.0;;;8.34;62.5
59654;BME280;66556;52.008;5.432;2023-03-03T04:41:29;102574.0;;;8.42;61.98
59654;BME280;66556;52.008;5.432;2023-03-03T04:44:41;102574.0;;;8.61;61.6
59654;BME280;66556;52.008;5.432;2023-03-03T04:46:17;102573.0;;;8.5;61.7
59654;BME280;66556;52.008;5.432;2023-03-03T04:47:54;102570.0;;;8.06;62.87
59654;BME280;66556;52.008;5.432;2023-03-03T04:49:31;102571.0;;;8.25;62.39
59654;BME280;66556;52.008;5.432;2023-03-03T04:52:43;102574.0;;;8.31;62.54
59654;BME280;66556;52.008;5.432;2023-03-03T04:54:19;102577.0;;;8.47;62.05
59654;BME280;66556;52.008;5.432;2023-03-03T04:55:55;102583.0;;;8.1;63.61
59654;BME280;66556;52.008;5.432;2023-03-03T04:59:07;102578.0;;;8.24;62.64
59654;BME280;66556;52.008;5.432;2023-03-03T05:00:43;102580.0;;;8.22;62.43
59654;BME280;66556;52.008;5.432;2023-03-03T05:02:19;102586.99999999999;;;7.86;64.08
59654;BME280;66556;52.008;5.432;2023-03-03T05:05:31;102582.0;;;7.95;63.95
59654;BME280;66556;52.008;5.432;2023-03-03T05:07:07;102588.00000000001;;;7.87;63.7
59654;BME280;66556;52.008;5.432;2023-03-03T05:08:43;102592.0;;;8.25;62.42
59654;BME280;66556;52.008;5.432;2023-03-03T05:11:55;102592.0;;;8.44;61.71
59654;BME280;66556;52.008;5.432;2023-03-03T05:13:32;102591.00000000001;;;8.2;61.95
59654;BME280;66556;52.008;5.432;2023-03-03T05:15:09;102586.99999999999;;;8.67;60.7
59654;BME280;66556;52.008;5.432;2023-03-03T05:16:47;102584.99999999999;;;8.49;61.13
59654;BME280;66556;52.008;5.432;2023-03-03T05:20:02;102588.00000000001;;;8.45;61.63
59654;BME280;66556;52.008;5.432;2023-03-03T05:21:38;102589.00000000001;;;8.26;62.38
59654;BME280;66556;52.008;5.432;2023-03-03T05:23:15;102593.0;;;8.56;61.98
59654;BME280;66556;52.008;5.432;2023-03-03T05:26:28;102593.0;;;8.4;62.04
59654;BME280;66556;52.008;5.432;2023-03-03T05:28:04;102591.00000000001;;;8.55;61.45
59654;BME280;66556;52.008;5.432;2023-03-03T05:29:40;102592.0;;;8.44;62.1
59654;BME280;66556;52.008;5.432;2023-03-03T05:32:52;102586.99999999999;;;8.81;60.88
59654;BME280;66556;52.008;5.432;2023-03-03T05:34:28;102586.99999999999;;;8.48;61.92
59654;BME280;66556;52.008;5.432;2023-03-03T05:36:05;102588.00000000001;;;8.61;61.47
59654;BME280;66556;52.008;5.432;2023-03-03T05:37:42;102594.0;;;8.99;60.57
59654;BME280;66556;52.008;5.432;2023-03-03T05:40:54;102589.00000000001;;;8.78;60.86
59654;BME280;66556;52.008;5.432;2023-03-03T05:42:30;102589.00000000001;;;8.68;61.26
59654;BME280;66556;52.008;5.432;2023-03-03T05:44:07;102592.0;;;8.69;61.22
59654;BME280;66556;52.008;5.432;2023-03-03T05:47:19;102593.0;;;8.88;61.02
59654;BME280;66556;52.008;5.432;2023-03-03T05:48:56;102591.00000000001;;;8.89;60.75
59654;BME280;66556;52.008;5.432;2023-03-03T05:50:32;102592.0;;;8.83;61.22
59654;BME280;66556;52.008;5.432;2023-03-03T05:53:44;102590.00000000001;;;8.9;60.38
59654;BME280;66556;52.008;5.432;2023-03-03T05:55:20;102592.0;;;8.82;61.84
59654;BME280;66556;52.008;5.432;2023-03-03T05:56:56;102590.00000000001;;;9.0;60.86
59654;BME280;66556;52.008;5.432;2023-03-03T05:58:32;102595.0;;;8.94;60.94
59654;BME280;66556;52.008;5.432;2023-03-03T06:01:47;102594.0;;;9.18;60.54
59654;BME280;66556;52.008;5.432;2023-03-03T06:03:23;102596.0;;;9.34;60.09
59654;BME280;66556;52.008;5.432;2023-03-03T06:04:59;102597.0;;;9.07;60.71
59654;BME280;66556;52.008;5.432;2023-03-03T06:08:11;102592.0;;;9.15;60.11
59654;BME280;66556;52.008;5.432;2023-03-03T06:09:47;102595.0;;;9.35;60.27
59654;BME280;66556;52.008;5.432;2023-03-03T06:11:23;102598.0;;;9.31;60.23
59654;BME280;66556;52.008;5.432;2023-03-03T06:14:35;102596.0;;;9.23;60.26
59654;BME280;66556;52.008;5.432;2023-03-03T06:16:12;102601.0;;;9.31;60.34
59654;BME280;66556;52.008;5.432;2023-03-03T06:17:48;102603.0;;;8.74;61.5
59654;BME280;66556;52.008;5.432;2023-03-03T06:21:01;102602.0;;;8.93;61.68
59654;BME280;66556;52.008;5.432;2023-03-03T06:22:37;102605.0;;;9.05;61.91
59654;BME280;66556;52.008;5.432;2023-03-03T06:24:13;102617.0;;;8.97;61.72
59654;BME280;66556;52.008;5.432;2023-03-03T06:25:49;102622.0;;;8.98;62.78
59654;BME280;66556;52.008;5.432;2023-03-03T06:29:02;102620.0;;;9.09;61.91
59654;BME280;66556;52.008;5.432;2023-03-03T06:30:38;102624.0;;;9.3;61.36
59654;BME280;66556;52.008;5.432;2023-03-03T06:32:15;102620.0;;;9.56;60.41
59654;BME280;66556;52.008;5.432;2023-03-03T06:35:28;102628.0;;;9.34;60.82
59654;BME280;66556;52.008;5.432;2023-03-03T06:37:05;102624.0;;;9.4;60.87
59654;BME280;66556;52.008;5.432;2023-03-03T06:38:42;102624.0;;;9.59;60.42
59654;BME280;66556;52.008;5.432;2023-03-03T06:41:54;102623.0;;;9.23;61.31
59654;BME280;66556;52.008;5.432;2023-03-03T06:43:30;102627.0;;;9.02;62.54
59654;BME280;66556;52.008;5.432;2023-03-03T06:45:07;102627.0;;;9.02;63.43
59654;BME280;66556;52.008;5.432;2023-03-03T06:46:43;102633.0;;;8.84;63.22
59654;BME280;66556;52.008;5.432;2023-03-03T06:49:55;102642.0;;;9.23;62.8
59654;BME280;66556;52.008;5.432;2023-03-03T06:51:33;102634.99999999999;;;9.39;61.7
59654;BME280;66556;52.008;5.432;2023-03-03T06:53:13;102641.00000000001;;;9.43;61.73
59654;BME280;66556;52.008;5.432;2023-03-03T06:56:33;102642.0;;;9.21;62.61
59654;BME280;66556;52.008;5.432;2023-03-03T06:58:13;102648.0;;;9.39;62.28
59654;BME280;66556;52.008;5.432;2023-03-03T06:59:52;102649.0;;;9.41;62.35
59654;BME280;66556;52.008;5.432;2023-03-03T07:01:33;102645.0;;;9.02;63.7
59654;BME280;66556;52.008;5.432;2023-03-03T07:04:52;102650.0;;;9.41;62.71
59654;BME280;66556;52.008;5.432;2023-03-03T07:06:31;102653.0;;;9.39;62.87
59654;BME280;66556;52.008;5.432;2023-03-03T07:08:12;102654.0;;;9.52;63.06
59654;BME280;66556;52.008;5.432;2023-03-03T07:09:53;102661.99999999999;;;9.4;62.89
59654;BME280;66556;52.008;5.432;2023-03-03T07:13:16;102655.0;;;9.5;63.18
59654;BME280;66556;52.008;5.432;2023-03-03T07:15:01;102658.0;;;9.71;62.0
59654;BME280;66556;52.008;5.432;2023-03-03T07:16:51;102663.00000000001;;;9.98;61.62
59654;BME280;66556;52.008;5.432;2023-03-03T07:18:34;102666.00000000001;;;9.63;62.26
59654;BME280;66556;52.008;5.432;2023-03-03T07:20:18;102668.0;;;9.73;62.7
59654;BME280;66556;52.008;5.432;2023-03-03T07:23:37;102673.0;;;9.48;63.54
59654;BME280;66556;52.008;5.432;2023-03-03T07:25:28;102678.0;;;9.52;63.45
59654;BME280;66556;52.008;5.432;2023-03-03T07:27:10;102678.0;;;9.44;63.58
59654;BME280;66556;52.008;5.432;2023-03-03T07:28:52;102673.0;;;9.66;62.98
59654;BME280;66556;52.008;5.432;2023-03-03T07:32:17;102676.0;;;9.65;63.16
59654;BME280;66556;52.008;5.432;2023-03-03T07:33:59;102683.0;;;9.48;64.24
59654;BME280;66556;52.008;5.432;2023-03-03T07:35:37;102676.0;;;9.73;63.79
59654;BME280;66556;52.008;5.432;2023-03-03T07:37:17;102676.0;;;9.64;63.43
59654;BME280;66556;52.008;5.432;2023-03-03T07:39:20;102677.0;;;9.82;62.85
59654;BME280;66556;52.008;5.432;2023-03-03T07:41:07;102675.0;;;9.77;63.51
59654;BME280;66556;52.008;5.432;2023-03-03T07:44:30;102681.0;;;9.86;63.0
59654;BME280;66556;52.008;5.432;2023-03-03T07:46:24;102680.0;;;9.61;63.93
59654;BME280;66556;52.008;5.432;2023-03-03T07:48:08;102678.0;;;10.33;62.11
59654;BME280;66556;52.008;5.432;2023-03-03T07:49:56;102683.99999999999;;;10.29;61.61
59654;BME280;66556;52.008;5.432;2023-03-03T07:51:37;102683.0;;;10.06;62.99
59654;BME280;66556;52.008;5.432;2023-03-03T07:55:29;102693.0;;;10.32;61.78
59654;BME280;66556;52.008;5.432;2023-03-03T07:57:15;102692.0;;;10.27;61.97
59654;BME280;66556;52.008;5.432;2023-03-03T07:58:57;102692.0;;;10.42;61.39
59654;BME280;66556;52.008;5.432;2023-03-03T08:01:23;102696.0;;;10.71;60.53
59654;BME280;66556;52.008;5.432;2023-03-03T08:03:16;102699.0;;;10.72;60.51
59654;BME280;66556;52.008;5.432;2023-03-03T08:04:53;102705.0;;;10.68;60.72
59654;BME280;66556;52.008;5.432;2023-03-03T08:06:38;102707.0;;;10.54;61.1
59654;BME280;66556;52.008;5.432;2023-03-03T08:08:27;102709.99999999999;;;10.83;60.37
59654;BME280;66556;52.008;5.432;2023-03-03T08:12:22;102717.0;;;10.58;61.29
59654;BME280;66556;52.008;5.432;2023-03-03T08:14:14;102717.0;;;10.76;60.46
59654;BME280;66556;52.008;5.432;2023-03-03T08:15:58;102714.00000000001;;;10.74;60.56
59654;BME280;66556;52.008;5.432;2023-03-03T08:17:38;102721.0;;;10.76;60.17
59654;BME280;66556;52.008;5.432;2023-03-03T08:19:16;102719.0;;;10.79;60.1
59654;BME280;66556;52.008;5.432;2023-03-03T08:20:55;102721.0;;;10.78;60.18
59654;BME280;66556;52.008;5.432;2023-03-03T08:24:10;102722.0;;;10.82;60.89
59654;BME280;66556;52.008;5.432;2023-03-03T08:25:48;102721.0;;;10.95;59.79
59654;BME280;66556;52.008;5.432;2023-03-03T08:27:24;102721.0;;;10.68;60.71
59654;BME280;66556;52.008;5.432;2023-03-03T08:30:36;102721.0;;;11.01;59.86
59654;BME280;66556;52.008;5.432;2023-03-03T08:32:13;102726.0;;;10.72;60.82
59654;BME280;66556;52.008;5.432;2023-03-03T08:33:51;102733.99999999999;;;10.89;60.84
59654;BME280;66556;52.008;5.432;2023-03-03T08:35:27;102732.0;;;10.82;60.89
59654;BME280;66556;52.008;5.432;2023-03-03T08:38:40;102734.99999999999;;;10.72;60.75
59654;BME280;66556;52.008;5.432;2023-03-03T08:40:16;102736.99999999999;;;10.51;61.03
59654;BME280;66556;52.008;5.432;2023-03-03T08:41:52;102736.99999999999;;;10.63;61.11
59654;BME280;66556;52.008;5.432;2023-03-03T08:45:05;102733.0;;;10.68;61.14
59654;BME280;66556;52.008;5.432;2023-03-03T08:46:42;102733.0;;;10.98;60.52
59654;BME280;66556;52.008;5.432;2023-03-03T08:48:19;102739.00000000001;;;10.92;60.6
59654;BME280;66556;52.008;5.432;2023-03-03T08:51:32;102736.99999999999;;;11.07;60.15
59654;BME280;66556;52.008;5.432;2023-03-03T08:53:09;102733.0;;;11.05;60.13
59654;BME280;66556;52.008;5.432;2023-03-03T08:54:46;102739.00000000001;;;11.05;59.87
59654;BME280;66556;52.008;5.432;2023-03-03T08:56:22;102736.99999999999;;;11.15;60.25
59654;BME280;66556;52.008;5.432;2023-03-03T08:59:34;102738.00000000001;;;11.36;59.62
59654;BME280;66556;52.008;5.432;2023-03-03T09:01:10;102733.99999999999;;;11.44;59.36
59654;BME280;66556;52.008;5.432;2023-03-03T09:02:47;102738.00000000001;;;11.4;58.72
59654;BME280;66556;52.008;5.432;2023-03-03T09:06:00;102742.0;;;11.54;59.26
59654;BME280;66556;52.008;5.432;2023-03-03T09:09:13;102736.99999999999;;;11.76;58.31
59654;BME280;66556;52.008;5.432;2023-03-03T09:12:29;102738.00000000001;;;11.82;57.82
59654;BME280;66556;52.008;5.432;2023-03-03T09:14:10;102730.0;;;11.56;58.3
59654;BME280;66556;52.008;5.432;2023-03-03T09:15:47;102736.99999999999;;;11.95;57.64
59654;BME280;66556;52.008;5.432;2023-03-03T09:17:26;102736.99999999999;;;11.87;58.21
59654;BME280;66556;52.008;5.432;2023-03-03T09:20:59;102734.99999999999;;;11.78;57.59
59654;BME280;66556;52.008;5.432;2023-03-03T09:22:36;102732.0;;;12.05;57.61
59654;BME280;66556;52.008;5.432;2023-03-03T09:24:22;102732.0;;;12.05;57.9
59654;BME280;66556;52.008;5.432;2023-03-03T09:26:17;102733.99999999999;;;12.33;56.44
59654;BME280;66556;52.008;5.432;2023-03-03T09:28:18;102739.00000000001;;;12.13;57.34
59654;BME280;66556;52.008;5.432;2023-03-03T09:30:00;102744.0;;;12.19;56.8
59654;BME280;66556;52.008;5.432;2023-03-03T09:33:23;102742.0;;;12.34;56.3
59654;BME280;66556;52.008;5.432;2023-03-03T09:35:21;102732.0;;;12.22;55.79
59654;BME280;66556;52.008;5.432;2023-03-03T09:37:20;102739.00000000001;;;12.26;55.35
59654;BME280;66556;52.008;5.432;2023-03-03T09:38:57;102739.00000000001;;;12.17;56.43
59654;BME280;66556;52.008;5.432;2023-03-03T09:40:49;102739.00000000001;;;12.33;55.34
59654;BME280;66556;52.008;5.432;2023-03-03T09:42:37;102742.0;;;12.52;55.01
59654;BME280;66556;52.008;5.432;2023-03-03T09:44:51;102745.0;;;12.43;55.32
59654;BME280;66556;52.008;5.432;2023-03-03T09:47:53;102742.0;;;12.65;54.68
59654;BME280;66556;52.008;5.432;2023-03-03T09:49:43;102739.00000000001;;;12.74;54.83
59654;BME280;66556;52.008;5.432;2023-03-03T09:51:40;102740.00000000001;;;12.71;53.74
59654;BME280;66556;52.008;5.432;2023-03-03T09:53:59;102747.0;;;12.42;54.08
59654;BME280;66556;52.008;5.432;2023-03-03T09:55:58;102745.0;;;12.83;53.85
59654;BME280;66556;52.008;5.432;2023-03-03T09:57:53;102744.0;;;13.0;53.64
59654;BME280;66556;52.008;5.432;2023-03-03T09:59:43;102744.0;;;13.14;53.21
59654;BME280;66556;52.008;5.432;2023-03-03T10:01:37;102747.0;;;12.8;53.94
59654;BME280;66556;52.008;5.432;2023-03-03T10:04:07;102752.0;;;12.01;54.8
59654;BME280;66556;52.008;5.432;2023-03-03T10:06:53;102755.0;;;12.13;55.33
59654;BME280;66556;52.008;5.432;2023-03-03T10:08:45;102754.0;;;12.47;54.02
59654;BME280;66556;52.008;5.432;2023-03-03T10:10:44;102754.0;;;12.88;52.91
59654;BME280;66556;52.008;5.432;2023-03-03T10:13:04;102751.0;;;12.96;52.58
59654;BME280;66556;52.008;5.432;2023-03-03T10:14:58;102745.0;;;13.18;52.24
59654;BME280;66556;52.008;5.432;2023-03-03T10:17:20;102752.0;;;12.84;52.33
59654;BME280;66556;52.008;5.432;2023-03-03T10:19:02;102750.0;;;12.94;52.33
59654;BME280;66556;52.008;5.432;2023-03-03T10:20:54;102752.0;;;13.11;52.09
59654;BME280;66556;52.008;5.432;2023-03-03T10:22:43;102756.0;;;12.54;53.36
59654;BME280;66556;52.008;5.432;2023-03-03T10:24:26;102750.0;;;12.92;52.17
59654;BME280;66556;52.008;5.432;2023-03-03T10:28:06;102756.0;;;12.76;52.85
59654;BME280;66556;52.008;5.432;2023-03-03T10:30:02;102748.0;;;12.74;53.07
59654;BME280;66556;52.008;5.432;2023-03-03T10:31:50;102744.0;;;12.95;52.23
59654;BME280;66556;52.008;5.432;2023-03-03T10:33:43;102742.0;;;12.88;52.35
59654;BME280;66556;52.008;5.432;2023-03-03T10:35:32;102744.0;;;12.96;52.47
59654;BME280;66556;52.008;5.432;2023-03-03T10:37:18;102751.0;;;13.37;52.28
59654;BME280;66556;52.008;5.432;2023-03-03T10:39:13;102752.0;;;13.18;52.45
59654;BME280;66556;52.008;5.432;2023-03-03T10:42:59;102747.0;;;13.5;51.15
59654;BME280;66556;52.008;5.432;2023-03-03T10:44:54;102751.0;;;13.51;51.29
59654;BME280;66556;52.008;5.432;2023-03-03T10:46:50;102754.0;;;13.62;51.22
59654;BME280;66556;52.008;5.432;2023-03-03T10:48:44;102756.0;;;13.69;50.87
59654;BME280;66556;52.008;5.432;2023-03-03T10:50:33;102751.0;;;13.43;50.65
59654;BME280;66556;52.008;5.432;2023-03-03T10:52:25;102749.0;;;14.21;50.38
59654;BME280;66556;52.008;5.432;2023-03-03T10:54:19;102752.0;;;14.17;49.58